Orange Park, Florida
Current Conditions -  °F | °C
As of 12:53 AM on Thursday 29 Jan 2015 (Local Time) from KNIP Reporting Station
Clear Clear  
Wind Chill: 47°   Ceiling: Unl
Heat Index: 47°   Visibility: 10mi
Dew Point: 37°   Wind: 3mph
Humidity: 68%   Direction: 320°NW
Pressure: 30.33"   Gusts: NA
Location:  30.17°N, 81.7°W
Report Text: KNIP 290553Z 32003KT 10SM CLR 08/03 A3033 RMK AO2 SLP264 T00830028 10100 20078 50005
Loading
Personal Weather Stations






























Interactive Weather Map New forecast layout! Learn more

10-Day Weather Forecast

Advertisements
Track Severe Weather on mobile